createdAt,value
2018-09-12T00:00:47.788Z,753.00
2018-09-12T00:01:48.508Z,753.00
2018-09-12T00:02:49.187Z,753.00
2018-09-12T00:03:49.852Z,753.00
2018-09-12T00:04:50.446Z,753.00
2018-09-12T00:05:51.047Z,754.00
2018-09-12T00:06:51.684Z,753.00
2018-09-12T00:07:52.241Z,756.00
2018-09-12T00:08:53.917Z,756.00
2018-09-12T00:09:51.953Z,756.00
2018-09-12T00:10:52.443Z,756.00
2018-09-12T00:11:54.014Z,754.00
2018-09-12T00:12:54.701Z,754.00
2018-09-12T00:13:54.337Z,754.00
2018-09-12T00:15:02.258Z,756.00
2018-09-12T00:15:55.584Z,756.00
2018-09-12T00:16:57.320Z,756.00
2018-09-12T00:17:57.322Z,754.00
2018-09-12T00:18:57.893Z,754.00
2018-09-12T00:19:58.399Z,754.00
2018-09-12T00:20:58.996Z,754.00
2018-09-12T00:21:59.653Z,754.00
2018-09-12T00:22:11.010Z,754.00
2018-09-12T00:23:12.551Z,754.00
2018-09-12T00:24:13.211Z,753.00
2018-09-12T00:25:13.729Z,754.00
2018-09-12T00:26:14.170Z,754.00
2018-09-12T00:27:14.669Z,753.00
2018-09-12T00:28:15.311Z,754.00
2018-09-12T00:29:15.837Z,754.00
2018-09-12T00:30:16.471Z,757.00
2018-09-12T00:31:17.413Z,756.00
2018-09-12T00:32:17.860Z,757.00
2018-09-12T00:33:18.330Z,758.00
2018-09-12T00:34:18.799Z,756.00
2018-09-12T00:35:19.514Z,756.00
2018-09-12T00:36:20.070Z,756.00
2018-09-12T00:37:20.532Z,757.00
2018-09-12T00:38:21.500Z,753.00
2018-09-12T00:39:22.104Z,757.00
2018-09-12T00:40:22.611Z,756.00
2018-09-12T00:41:23.191Z,756.00
2018-09-12T00:42:24.172Z,756.00
2018-09-12T00:43:24.669Z,756.00
2018-09-12T00:44:25.198Z,756.00
2018-09-12T00:45:25.920Z,757.00
2018-09-12T00:46:25.893Z,756.00
2018-09-12T00:47:26.613Z,758.00
2018-09-12T00:48:27.247Z,757.00
2018-09-12T00:49:27.824Z,759.00
2018-09-12T00:50:28.611Z,758.00
2018-09-12T00:51:29.062Z,758.00
2018-09-12T00:52:29.611Z,759.00
2018-09-12T00:53:30.070Z,760.00
2018-09-12T00:54:30.922Z,759.00
2018-09-12T00:55:31.612Z,758.00
2018-09-12T00:56:32.102Z,757.00
2018-09-12T00:57:32.809Z,757.00
2018-09-12T00:58:33.260Z,757.00
2018-09-12T00:59:33.834Z,756.00
2018-09-12T01:00:34.812Z,758.00
2018-09-12T01:01:35.337Z,760.00
2018-09-12T01:02:35.879Z,760.00
2018-09-12T01:03:36.289Z,759.00
2018-09-12T01:04:36.769Z,758.00
2018-09-12T01:04:45.133Z,758.00
2018-09-12T01:05:45.548Z,758.00
2018-09-12T01:06:46.550Z,758.00
2018-09-12T01:07:47.178Z,758.00
2018-09-12T01:08:47.818Z,757.00
2018-09-12T01:09:48.419Z,757.00
2018-09-12T01:10:49.056Z,758.00
2018-09-12T01:11:49.593Z,759.00
2018-09-12T01:12:50.279Z,758.00
2018-09-12T01:13:50.873Z,758.00
2018-09-12T01:14:51.488Z,759.00
2018-09-12T01:15:52.278Z,760.00
2018-09-12T01:16:52.761Z,760.00
2018-09-12T01:17:53.464Z,759.00
2018-09-12T01:18:54.088Z,759.00
2018-09-12T01:19:54.589Z,758.00
2018-09-12T01:20:55.206Z,758.00
2018-09-12T01:21:55.774Z,757.00
2018-09-12T01:22:56.245Z,757.00
2018-09-12T01:23:56.755Z,757.00
2018-09-12T01:24:57.293Z,758.00
2018-09-12T01:25:58.020Z,758.00
2018-09-12T01:26:58.455Z,758.00
2018-09-12T01:27:58.897Z,758.00
2018-09-12T01:28:59.512Z,758.00
2018-09-12T01:30:00.014Z,758.00
2018-09-12T01:31:00.263Z,758.00
2018-09-12T01:32:00.874Z,758.00
2018-09-12T01:33:01.533Z,758.00
2018-09-12T01:34:02.185Z,758.00
2018-09-12T01:35:02.829Z,758.00
2018-09-12T01:36:03.457Z,758.00
2018-09-12T01:37:04.071Z,757.00
2018-09-12T01:38:04.593Z,756.00
2018-09-12T01:39:05.139Z,758.00
2018-09-12T01:40:05.699Z,758.00
2018-09-12T01:41:06.281Z,757.00
2018-09-12T01:42:06.804Z,757.00
2018-09-12T01:43:07.331Z,757.00
2018-09-12T01:44:07.792Z,756.00
2018-09-12T01:45:08.310Z,756.00
2018-09-12T01:46:08.845Z,756.00
2018-09-12T01:47:10.343Z,756.00
2018-09-12T01:48:09.871Z,757.00
2018-09-12T01:49:10.369Z,756.00
2018-09-12T01:50:10.911Z,757.00
2018-09-12T01:50:30.959Z,757.00
2018-09-12T01:51:31.538Z,757.00
2018-09-12T01:52:32.049Z,757.00
2018-09-12T01:53:32.666Z,756.00
2018-09-12T01:54:33.201Z,756.00
2018-09-12T01:55:33.759Z,757.00
2018-09-12T01:56:34.348Z,758.00
2018-09-12T01:57:34.820Z,758.00
2018-09-12T01:58:35.386Z,757.00
2018-09-12T01:59:36.040Z,757.00
2018-09-12T02:00:36.589Z,757.00
2018-09-12T02:01:37.222Z,758.00
2018-09-12T02:02:38.089Z,757.00
2018-09-12T02:03:38.644Z,757.00
2018-09-12T02:04:39.229Z,757.00
2018-09-12T02:05:39.789Z,756.00
2018-09-12T02:06:40.430Z,758.00
2018-09-12T02:07:40.960Z,757.00
2018-09-12T02:08:41.493Z,757.00
2018-09-12T02:09:41.972Z,759.00
2018-09-12T02:10:42.587Z,758.00
2018-09-12T02:11:43.108Z,758.00
2018-09-12T02:12:43.436Z,759.00
2018-09-12T02:13:44.206Z,758.00
2018-09-12T02:14:44.951Z,759.00
2018-09-12T02:15:44.998Z,760.00
2018-09-12T02:16:45.693Z,759.00
2018-09-12T02:17:46.323Z,759.00
2018-09-12T02:18:47.012Z,758.00
2018-09-12T02:19:47.837Z,758.00
2018-09-12T02:20:48.311Z,758.00
2018-09-12T02:21:48.505Z,759.00
2018-09-12T02:22:48.909Z,760.00
2018-09-12T02:23:49.391Z,759.00
2018-09-12T02:24:50.127Z,760.00
2018-09-12T02:25:50.725Z,759.00
2018-09-12T02:26:50.861Z,758.00
2018-09-12T02:27:51.543Z,758.00
2018-09-12T02:28:52.277Z,762.00
2018-09-12T02:29:52.393Z,760.00
2018-09-12T02:30:53.120Z,759.00
2018-09-12T02:31:53.689Z,759.00
2018-09-12T02:32:54.178Z,759.00
2018-09-12T02:33:53.609Z,759.00
2018-09-12T02:34:54.870Z,760.00
2018-09-12T02:35:03.375Z,761.00
2018-09-12T02:36:04.107Z,760.00
2018-09-12T02:37:04.657Z,760.00
2018-09-12T02:38:05.485Z,759.00
2018-09-12T02:39:05.609Z,760.00
2018-09-12T02:40:06.123Z,759.00
2018-09-12T02:41:06.771Z,759.00
2018-09-12T02:42:07.662Z,759.00
2018-09-12T02:43:08.352Z,759.00
2018-09-12T02:44:08.890Z,758.00
2018-09-12T02:45:09.604Z,758.00
2018-09-12T02:46:09.796Z,758.00
2018-09-12T02:47:10.459Z,759.00
2018-09-12T02:48:11.020Z,759.00
2018-09-12T02:49:11.117Z,759.00
2018-09-12T02:50:11.748Z,759.00
2018-09-12T02:51:12.337Z,758.00
2018-09-12T02:52:12.463Z,759.00
2018-09-12T02:53:13.105Z,758.00
2018-09-12T02:54:13.656Z,758.00
2018-09-12T02:55:14.119Z,758.00
2018-09-12T02:56:14.685Z,758.00
2018-09-12T02:57:15.374Z,759.00
2018-09-12T02:58:16.117Z,759.00
2018-09-12T02:59:16.705Z,759.00
2018-09-12T03:00:17.339Z,759.00
2018-09-12T03:01:17.965Z,759.00
2018-09-12T03:02:17.590Z,758.00
2018-09-12T03:03:18.797Z,758.00
2018-09-12T03:04:19.715Z,758.00
2018-09-12T03:05:20.489Z,758.00
2018-09-12T03:06:21.007Z,758.00
2018-09-12T03:07:21.608Z,758.00
2018-09-12T03:08:22.218Z,759.00
2018-09-12T03:09:22.883Z,759.00
2018-09-12T03:10:22.958Z,759.00
2018-09-12T03:11:23.568Z,759.00
2018-09-12T03:12:24.182Z,759.00
2018-09-12T03:13:24.764Z,759.00
2018-09-12T03:14:25.566Z,759.00
2018-09-12T03:15:26.187Z,759.00
2018-09-12T03:16:26.810Z,759.00
2018-09-12T03:17:27.449Z,759.00
2018-09-12T03:18:28.115Z,759.00
2018-09-12T03:19:28.715Z,760.00
2018-09-12T03:19:37.081Z,760.00
2018-09-12T03:20:38.750Z,759.00
2018-09-12T03:21:38.228Z,760.00
2018-09-12T03:22:39.830Z,759.00
2018-09-12T03:23:40.335Z,759.00
2018-09-12T03:24:40.578Z,759.00
2018-09-12T03:25:40.940Z,759.00
2018-09-12T03:26:41.451Z,759.00
2018-09-12T03:27:42.103Z,759.00
2018-09-12T03:28:42.929Z,759.00
2018-09-12T03:29:43.558Z,759.00
2018-09-12T03:30:44.088Z,759.00
2018-09-12T03:31:44.687Z,760.00
2018-09-12T03:32:45.252Z,760.00
2018-09-12T03:33:45.951Z,759.00
2018-09-12T03:34:46.466Z,759.00
2018-09-12T03:35:46.512Z,759.00
2018-09-12T03:36:47.339Z,760.00
2018-09-12T03:37:47.988Z,760.00
2018-09-12T03:38:48.750Z,760.00
2018-09-12T03:39:48.374Z,760.00
2018-09-12T03:40:49.874Z,760.00
2018-09-12T03:41:50.391Z,763.00
2018-09-12T03:42:50.832Z,763.00
2018-09-12T03:43:51.343Z,760.00
2018-09-12T03:44:51.905Z,760.00
2018-09-12T03:45:52.353Z,760.00
2018-09-12T03:46:52.814Z,761.00
2018-09-12T03:47:53.658Z,760.00
2018-09-12T03:48:54.180Z,760.00
2018-09-12T03:49:54.655Z,760.00
2018-09-12T03:50:55.140Z,760.00
2018-09-12T03:51:55.782Z,760.00
2018-09-12T03:52:56.258Z,759.00
2018-09-12T03:53:56.727Z,759.00
2018-09-12T03:54:57.315Z,760.00
2018-09-12T03:55:57.757Z,760.00
2018-09-12T03:56:58.339Z,762.00
2018-09-12T03:57:57.931Z,762.00
2018-09-12T03:58:59.675Z,762.00
2018-09-12T04:00:00.201Z,761.00
2018-09-12T04:01:00.728Z,760.00
2018-09-12T04:02:00.835Z,760.00
2018-09-12T04:03:01.617Z,762.00
2018-09-12T04:04:02.229Z,762.00
2018-09-12T04:05:02.736Z,763.00
2018-09-12T04:05:11.100Z,763.00
2018-09-12T04:06:12.575Z,763.00
2018-09-12T04:07:13.147Z,762.00
2018-09-12T04:08:13.705Z,762.00
2018-09-12T04:09:14.577Z,760.00
2018-09-12T04:10:14.012Z,760.00
2018-09-12T04:11:15.522Z,762.00
2018-09-12T04:12:16.237Z,763.00
2018-09-12T04:13:15.858Z,762.00
2018-09-12T04:14:17.587Z,764.00
2018-09-12T04:15:18.201Z,763.00
2018-09-12T04:16:18.886Z,763.00
2018-09-12T04:17:19.585Z,762.00
2018-09-12T04:18:20.187Z,762.00
2018-09-12T04:19:20.732Z,762.00
2018-09-12T04:20:21.667Z,762.00
2018-09-12T04:21:22.158Z,763.00
2018-09-12T04:22:22.811Z,763.00
2018-09-12T04:23:23.384Z,761.00
2018-09-12T04:24:24.472Z,761.00
2018-09-12T04:25:23.973Z,762.00
2018-09-12T04:26:25.530Z,762.00
2018-09-12T04:27:26.031Z,760.00
2018-09-12T04:28:26.542Z,760.00
2018-09-12T04:29:27.117Z,760.00
2018-09-12T04:30:27.148Z,763.00
2018-09-12T04:31:27.762Z,762.00
2018-09-12T04:32:28.463Z,762.00
2018-09-12T04:33:29.229Z,762.00
2018-09-12T04:34:29.906Z,760.00
2018-09-12T04:35:30.321Z,760.00
2018-09-12T04:36:30.859Z,760.00
2018-09-12T04:37:31.391Z,760.00
2018-09-12T04:38:32.273Z,760.00
2018-09-12T04:39:32.847Z,760.00
2018-09-12T04:40:33.395Z,760.00
2018-09-12T04:41:34.035Z,760.00
2018-09-12T04:42:34.834Z,762.00
2018-09-12T04:43:34.436Z,760.00
2018-09-12T04:44:35.920Z,762.00
2018-09-12T04:45:36.412Z,762.00
2018-09-12T04:46:36.944Z,762.00
2018-09-12T04:47:37.261Z,762.00
2018-09-12T04:48:37.832Z,762.00
2018-09-12T04:49:37.187Z,762.00
2018-09-12T04:50:38.804Z,762.00
2018-09-12T04:51:39.259Z,762.00
2018-09-12T04:52:39.703Z,762.00
2018-09-12T04:52:48.200Z,762.00
2018-09-12T04:53:49.092Z,763.00
2018-09-12T04:54:48.639Z,762.00
2018-09-12T04:55:50.213Z,762.00
2018-09-12T04:56:50.993Z,765.00
2018-09-12T04:57:51.458Z,765.00
2018-09-12T04:58:52.079Z,764.00
2018-09-12T04:59:52.887Z,765.00
2018-09-12T05:00:52.377Z,765.00
2018-09-12T05:01:54.031Z,765.00
2018-09-12T05:02:54.744Z,765.00
2018-09-12T05:03:54.794Z,765.00
2018-09-12T05:04:55.652Z,765.00
2018-09-12T05:05:56.098Z,765.00
2018-09-12T05:06:56.699Z,765.00
2018-09-12T05:07:57.158Z,763.00
2018-09-12T05:08:57.703Z,763.00
2018-09-12T05:09:58.196Z,763.00
2018-09-12T05:10:58.866Z,763.00
2018-09-12T05:11:59.517Z,762.00
2018-09-12T05:12:59.973Z,763.00
2018-09-12T05:14:01.913Z,763.00
2018-09-12T05:15:01.709Z,763.00
2018-09-12T05:16:02.466Z,763.00
2018-09-12T05:17:02.350Z,763.00
2018-09-12T05:18:04.306Z,763.00
2018-09-12T05:19:05.123Z,763.00
2018-09-12T05:20:05.836Z,762.00
2018-09-12T05:21:06.349Z,762.00
2018-09-12T05:22:06.953Z,763.00
2018-09-12T05:23:07.766Z,763.00
2018-09-12T05:24:08.552Z,762.00
2018-09-12T05:25:09.182Z,763.00
2018-09-12T05:26:09.811Z,763.00
2018-09-12T05:27:10.285Z,763.00
2018-09-12T05:28:10.801Z,763.00
2018-09-12T05:29:11.368Z,763.00
2018-09-12T05:30:11.851Z,763.00
2018-09-12T05:31:12.441Z,762.00
2018-09-12T05:32:12.975Z,763.00
2018-09-12T05:33:13.705Z,763.00
2018-09-12T05:34:14.288Z,763.00
2018-09-12T05:35:14.793Z,763.00
2018-09-12T05:36:15.340Z,763.00
2018-09-12T05:37:14.845Z,763.00
2018-09-12T05:38:16.367Z,763.00
2018-09-12T05:39:16.486Z,763.00
2018-09-12T05:39:24.886Z,762.00
2018-09-12T05:40:26.405Z,762.00
2018-09-12T05:41:27.220Z,763.00
2018-09-12T05:42:28.079Z,762.00
2018-09-12T05:43:28.604Z,762.00
2018-09-12T05:44:29.301Z,763.00
2018-09-12T05:45:29.934Z,762.00
2018-09-12T05:46:30.598Z,762.00
2018-09-12T05:47:31.450Z,762.00
2018-09-12T05:48:31.932Z,763.00
2018-09-12T05:49:32.030Z,763.00
2018-09-12T05:50:32.560Z,763.00
2018-09-12T05:51:33.037Z,747.00
2018-09-12T05:52:33.539Z,762.00
2018-09-12T05:53:37.265Z,761.00
2018-09-12T05:54:34.809Z,761.00
2018-09-12T05:55:35.420Z,762.00
2018-09-12T05:56:36.036Z,762.00
2018-09-12T05:57:36.564Z,762.00
2018-09-12T05:58:37.120Z,762.00
2018-09-12T05:59:37.535Z,762.00
2018-09-12T06:00:38.153Z,762.00
2018-09-12T06:01:39.058Z,762.00
2018-09-12T06:02:39.585Z,762.00
2018-09-12T06:03:40.167Z,762.00
2018-09-12T06:04:40.671Z,761.00
2018-09-12T06:05:41.422Z,762.00
2018-09-12T06:06:41.399Z,762.00
2018-09-12T06:07:42.300Z,760.00
2018-09-12T06:08:44.260Z,761.00
2018-09-12T06:09:45.063Z,760.00
2018-09-12T06:10:45.779Z,760.00
2018-09-12T06:11:46.271Z,760.00
2018-09-12T06:12:46.852Z,760.00
2018-09-12T06:13:47.773Z,760.00
2018-09-12T06:14:47.520Z,760.00
2018-09-12T06:15:48.006Z,760.00
2018-09-12T06:16:49.576Z,759.00
2018-09-12T06:17:50.293Z,759.00
2018-09-12T06:18:50.837Z,759.00
2018-09-12T06:19:51.297Z,759.00
2018-09-12T06:20:52.055Z,759.00
2018-09-12T06:21:52.535Z,759.00
2018-09-12T06:22:52.847Z,759.00
2018-09-12T06:23:52.311Z,759.00
2018-09-12T06:24:53.833Z,759.00
2018-09-12T06:25:53.451Z,759.00
2018-09-12T06:26:55.080Z,759.00
2018-09-12T06:27:58.531Z,760.00
2018-09-12T06:28:55.639Z,760.00
2018-09-12T06:29:06.602Z,760.00
2018-09-12T06:30:06.589Z,760.00
2018-09-12T06:31:06.125Z,760.00
2018-09-12T06:32:07.774Z,759.00
2018-09-12T06:33:08.477Z,759.00
2018-09-12T06:34:09.036Z,760.00
2018-09-12T06:35:09.588Z,759.00
2018-09-12T06:36:10.119Z,758.00
2018-09-12T06:37:10.678Z,757.00
2018-09-12T06:38:11.246Z,756.00
2018-09-12T06:39:12.028Z,752.00
2018-09-12T06:40:11.626Z,749.00
2018-09-12T06:41:13.122Z,747.00
2018-09-12T06:42:14.038Z,746.00
2018-09-12T06:43:14.585Z,742.00
2018-09-12T06:44:15.177Z,741.00
2018-09-12T06:45:15.662Z,740.00
2018-09-12T06:46:16.345Z,739.00
2018-09-12T06:47:16.968Z,738.00
2018-09-12T06:48:16.934Z,736.00
2018-09-12T06:49:17.423Z,736.00
2018-09-12T06:50:17.991Z,735.00
2018-09-12T06:51:18.394Z,735.00
2018-09-12T06:52:19.167Z,734.00
2018-09-12T06:53:19.254Z,734.00
2018-09-12T06:54:19.853Z,732.00
2018-09-12T06:55:20.336Z,730.00
2018-09-12T06:56:21.005Z,730.00
2018-09-12T06:57:21.854Z,728.00
2018-09-12T06:58:22.684Z,727.00
2018-09-12T06:59:23.225Z,726.00
2018-09-12T07:00:24.173Z,725.00
2018-09-12T07:01:23.986Z,722.00
2018-09-12T07:02:25.875Z,720.00
2018-09-12T07:03:26.640Z,716.00
2018-09-12T07:04:27.224Z,715.00
2018-09-12T07:05:28.111Z,713.00
2018-09-12T07:06:28.870Z,711.00
2018-09-12T07:07:29.661Z,709.00
2018-09-12T07:08:29.279Z,711.00
2018-09-12T07:09:31.117Z,708.00
2018-09-12T07:10:31.741Z,705.00
2018-09-12T07:11:32.422Z,703.00
2018-09-12T07:12:33.146Z,705.00
2018-09-12T07:13:33.722Z,705.00
2018-09-12T07:14:34.310Z,706.00
2018-09-12T07:15:35.056Z,708.00
2018-09-12T07:15:43.401Z,706.00
2018-09-12T07:16:44.861Z,706.00
2018-09-12T07:17:44.507Z,706.00
2018-09-12T07:18:46.315Z,706.00
2018-09-12T07:19:47.054Z,708.00
2018-09-12T07:20:47.162Z,705.00
2018-09-12T07:21:47.831Z,709.00
2018-09-12T07:22:48.494Z,709.00
2018-09-12T07:23:49.215Z,710.00
2018-09-12T07:24:49.806Z,710.00
2018-09-12T07:25:49.154Z,710.00
2018-09-12T07:26:50.748Z,709.00
2018-09-12T07:27:51.532Z,708.00
2018-09-12T07:28:51.897Z,705.00
2018-09-12T07:29:52.805Z,703.00
2018-09-12T07:30:53.256Z,703.00
2018-09-12T07:31:53.840Z,701.00
2018-09-12T07:32:54.383Z,697.00
2018-09-12T07:33:55.024Z,694.00
2018-09-12T07:34:55.594Z,694.00
2018-09-12T07:35:56.203Z,693.00
2018-09-12T07:36:56.924Z,692.00
2018-09-12T07:37:57.721Z,691.00
2018-09-12T07:38:58.196Z,691.00
2018-09-12T07:39:58.803Z,691.00
2018-09-12T07:40:59.372Z,689.00
2018-09-12T07:41:59.825Z,687.00
2018-09-12T07:43:00.756Z,687.00
2018-09-12T07:44:01.139Z,686.00
2018-09-12T07:45:01.523Z,687.00
2018-09-12T07:46:02.031Z,687.00
2018-09-12T07:47:02.471Z,686.00
2018-09-12T07:48:02.937Z,685.00
2018-09-12T07:49:03.354Z,685.00
2018-09-12T07:50:02.837Z,685.00
2018-09-12T07:51:04.261Z,685.00
2018-09-12T07:52:05.047Z,686.00
2018-09-12T07:53:05.596Z,687.00
2018-09-12T07:54:06.021Z,687.00
2018-09-12T07:55:06.582Z,686.00
2018-09-12T07:56:06.150Z,686.00
2018-09-12T07:57:06.555Z,686.00
2018-09-12T07:58:08.138Z,686.00
2018-09-12T07:59:08.697Z,689.00
2018-09-12T08:00:09.247Z,688.00
2018-09-12T08:01:08.625Z,689.00
2018-09-12T08:02:10.125Z,690.00
2018-09-12T08:03:10.628Z,690.00
2018-09-12T08:04:11.193Z,692.00
2018-09-12T08:04:19.780Z,692.00
2018-09-12T08:05:20.085Z,693.00
2018-09-12T08:06:21.889Z,693.00
2018-09-12T08:07:22.454Z,692.00
2018-09-12T08:08:21.872Z,693.00
2018-09-12T08:09:23.355Z,694.00
2018-09-12T08:10:23.744Z,696.00
2018-09-12T08:11:24.305Z,701.00
2018-09-12T08:12:24.766Z,702.00
2018-09-12T08:13:25.212Z,703.00
2018-09-12T08:14:25.657Z,703.00
2018-09-12T08:15:26.175Z,705.00
2018-09-12T08:16:26.569Z,705.00
2018-09-12T08:17:26.924Z,705.00
2018-09-12T08:18:27.339Z,706.00
2018-09-12T08:19:27.824Z,705.00
2018-09-12T08:20:28.361Z,706.00
2018-09-12T08:21:28.794Z,708.00
2018-09-12T08:22:29.155Z,706.00
2018-09-12T08:23:28.609Z,703.00
2018-09-12T08:24:30.138Z,703.00
2018-09-12T08:25:30.526Z,703.00
2018-09-12T08:26:30.995Z,702.00
2018-09-12T08:27:31.347Z,702.00
2018-09-12T08:28:31.764Z,702.00
2018-09-12T08:29:32.264Z,704.00
2018-09-12T08:30:32.942Z,702.00
2018-09-12T08:31:33.352Z,702.00
2018-09-12T08:32:33.674Z,702.00
2018-09-12T08:33:34.029Z,702.00
2018-09-12T08:34:34.452Z,702.00
2018-09-12T08:35:34.776Z,702.00
2018-09-12T08:36:35.386Z,703.00
2018-09-12T08:37:34.498Z,703.00
2018-09-12T08:38:35.988Z,702.00
2018-09-12T08:39:36.698Z,702.00
2018-09-12T08:40:37.046Z,703.00
2018-09-12T08:41:37.471Z,706.00
2018-09-12T08:42:38.126Z,706.00
2018-09-12T08:43:37.121Z,706.00
2018-09-12T08:44:38.542Z,706.00
2018-09-12T08:45:38.921Z,708.00
2018-09-12T08:46:39.534Z,710.00
2018-09-12T08:47:39.733Z,709.00
2018-09-12T08:48:39.257Z,708.00
2018-09-12T08:49:40.653Z,708.00
2018-09-12T08:50:40.982Z,708.00
2018-09-12T08:51:41.355Z,706.00
2018-09-12T08:52:40.951Z,708.00
2018-09-12T08:53:42.266Z,709.00
2018-09-12T08:53:50.674Z,709.00
2018-09-12T08:54:51.777Z,710.00
2018-09-12T08:55:52.299Z,710.00
2018-09-12T08:56:52.748Z,708.00
2018-09-12T08:57:51.745Z,710.00
2018-09-12T08:58:53.180Z,709.00
2018-09-12T08:59:53.583Z,709.00
2018-09-12T09:00:54.109Z,710.00
2018-09-12T09:01:54.534Z,713.00
2018-09-12T09:02:54.943Z,712.00
2018-09-12T09:03:55.413Z,713.00
2018-09-12T09:04:54.849Z,713.00
2018-09-12T09:05:56.257Z,712.00
2018-09-12T09:06:56.831Z,711.00
2018-09-12T09:07:57.406Z,713.00
2018-09-12T09:08:57.935Z,712.00
2018-09-12T09:09:58.546Z,713.00
2018-09-12T09:10:58.937Z,712.00
2018-09-12T09:11:59.743Z,712.00
2018-09-12T09:13:00.216Z,712.00
2018-09-12T09:14:00.872Z,712.00
2018-09-12T09:15:01.468Z,712.00
2018-09-12T09:16:01.881Z,712.00
2018-09-12T09:17:02.376Z,712.00
2018-09-12T09:18:02.800Z,710.00
2018-09-12T09:19:03.256Z,712.00
2018-09-12T09:20:03.633Z,712.00
2018-09-12T09:21:04.028Z,712.00
2018-09-12T09:22:04.484Z,712.00
2018-09-12T09:23:05.318Z,713.00
2018-09-12T09:24:05.644Z,712.00
2018-09-12T09:25:06.248Z,711.00
2018-09-12T09:26:06.595Z,710.00
2018-09-12T09:27:07.201Z,710.00
2018-09-12T09:28:07.654Z,710.00
2018-09-12T09:29:08.085Z,710.00
2018-09-12T09:30:08.722Z,711.00
2018-09-12T09:31:09.166Z,712.00
2018-09-12T09:32:09.904Z,712.00
2018-09-12T09:33:10.677Z,712.00
2018-09-12T09:34:11.633Z,714.00
2018-09-12T09:35:12.559Z,712.00
2018-09-12T09:36:11.949Z,712.00
2018-09-12T09:37:13.383Z,712.00
2018-09-12T09:38:13.836Z,710.00
2018-09-12T09:39:13.320Z,715.00
2018-09-12T09:40:15.287Z,713.00
2018-09-12T09:41:15.671Z,713.00
2018-09-12T09:41:25.738Z,713.00
2018-09-12T09:42:27.065Z,713.00
2018-09-12T09:43:27.448Z,715.00
2018-09-12T09:44:27.839Z,712.00
2018-09-12T09:45:28.438Z,715.00
2018-09-12T09:46:27.848Z,712.00
2018-09-12T09:47:29.240Z,711.00
2018-09-12T09:48:29.759Z,711.00
2018-09-12T09:49:29.058Z,711.00
2018-09-12T09:50:30.601Z,710.00
2018-09-12T09:51:30.994Z,711.00
2018-09-12T09:52:30.380Z,711.00
2018-09-12T09:53:31.784Z,710.00
2018-09-12T09:54:32.252Z,712.00
2018-09-12T09:55:31.599Z,712.00
2018-09-12T09:56:32.967Z,712.00
2018-09-12T09:57:33.136Z,713.00
2018-09-12T09:58:33.452Z,713.00
2018-09-12T09:59:33.742Z,714.00
2018-09-12T10:00:34.100Z,715.00
2018-09-12T10:01:34.763Z,713.00
2018-09-12T10:02:35.185Z,715.00
2018-09-12T10:03:36.022Z,713.00
2018-09-12T10:04:36.547Z,713.00
2018-09-12T10:05:36.962Z,713.00
2018-09-12T10:06:37.830Z,712.00
2018-09-12T10:07:38.198Z,713.00
2018-09-12T10:08:38.581Z,713.00
2018-09-12T10:09:39.182Z,713.00
2018-09-12T10:10:39.556Z,715.00
2018-09-12T10:11:39.973Z,715.00
2018-09-12T10:12:40.506Z,714.00
2018-09-12T10:13:40.848Z,715.00
2018-09-12T10:14:41.527Z,715.00
2018-09-12T10:15:41.922Z,714.00
2018-09-12T10:16:41.963Z,716.00
2018-09-12T10:17:42.304Z,716.00
2018-09-12T10:18:42.691Z,716.00
2018-09-12T10:19:43.163Z,715.00
2018-09-12T10:20:43.649Z,717.00
2018-09-12T10:21:43.973Z,717.00
2018-09-12T10:22:44.373Z,717.00
2018-09-12T10:23:44.778Z,717.00
2018-09-12T10:24:45.146Z,720.00
2018-09-12T10:25:45.520Z,720.00
2018-09-12T10:26:46.074Z,718.00
2018-09-12T10:27:46.204Z,720.00
2018-09-12T10:28:47.052Z,720.00
2018-09-12T10:28:55.105Z,718.00
2018-09-12T10:29:56.459Z,718.00
2018-09-12T10:30:56.873Z,718.00
2018-09-12T10:31:57.402Z,720.00
2018-09-12T10:32:57.797Z,722.00
2018-09-12T10:33:58.181Z,721.00
2018-09-12T10:34:58.468Z,721.00
2018-09-12T10:35:58.884Z,720.00
2018-09-12T10:36:59.334Z,720.00
2018-09-12T10:37:59.693Z,718.00
2018-09-12T10:39:00.431Z,720.00
2018-09-12T10:40:00.870Z,717.00
2018-09-12T10:41:01.444Z,718.00
2018-09-12T10:42:00.995Z,718.00
2018-09-12T10:43:02.502Z,718.00
2018-09-12T10:44:02.874Z,720.00
2018-09-12T10:45:02.936Z,720.00
2018-09-12T10:46:03.379Z,721.00
2018-09-12T10:47:03.746Z,720.00
2018-09-12T10:48:04.178Z,720.00
2018-09-12T10:49:04.635Z,717.00
2018-09-12T10:50:04.930Z,718.00
2018-09-12T10:51:05.386Z,717.00
2018-09-12T10:52:05.795Z,717.00
2018-09-12T10:53:06.314Z,716.00
2018-09-12T10:54:06.912Z,717.00
2018-09-12T10:55:07.368Z,718.00
2018-09-12T10:56:07.694Z,718.00
2018-09-12T10:57:08.100Z,718.00
2018-09-12T10:58:08.581Z,718.00
2018-09-12T10:59:08.989Z,718.00
2018-09-12T11:00:08.788Z,720.00
2018-09-12T11:01:10.267Z,720.00
2018-09-12T11:02:10.708Z,721.00
2018-09-12T11:03:11.146Z,720.00
2018-09-12T11:04:11.590Z,721.00
2018-09-12T11:05:11.264Z,721.00
2018-09-12T11:06:12.617Z,720.00
2018-09-12T11:07:12.304Z,720.00
2018-09-12T11:08:13.752Z,720.00
2018-09-12T11:09:14.216Z,720.00
2018-09-12T11:10:14.677Z,720.00
2018-09-12T11:11:15.088Z,720.00
2018-09-12T11:12:15.465Z,721.00
2018-09-12T11:13:15.894Z,721.00
2018-09-12T11:14:16.387Z,721.00
2018-09-12T11:15:16.771Z,722.00
2018-09-12T11:16:16.595Z,721.00
2018-09-12T11:17:18.195Z,720.00
2018-09-12T11:17:26.234Z,717.00
2018-09-12T11:18:27.864Z,720.00
2018-09-12T11:19:28.253Z,718.00
2018-09-12T11:20:28.746Z,717.00
2018-09-12T11:21:29.222Z,720.00
2018-09-12T11:22:29.741Z,720.00
2018-09-12T11:23:31.139Z,722.00
2018-09-12T11:24:30.634Z,722.00
2018-09-12T11:25:31.203Z,725.00
2018-09-12T11:26:31.610Z,725.00
2018-09-12T11:27:31.988Z,722.00
2018-09-12T11:28:32.417Z,722.00
2018-09-12T11:29:33.120Z,721.00
2018-09-12T11:30:33.511Z,720.00
2018-09-12T11:31:33.995Z,720.00
2018-09-12T11:32:34.409Z,720.00
2018-09-12T11:33:34.847Z,720.00
2018-09-12T11:34:35.265Z,725.00
2018-09-12T11:35:35.832Z,723.00
2018-09-12T11:36:34.855Z,722.00
2018-09-12T11:37:36.525Z,725.00
2018-09-12T11:38:37.070Z,722.00
2018-09-12T11:39:37.803Z,721.00
2018-09-12T11:40:38.461Z,720.00
2018-09-12T11:41:38.945Z,720.00
2018-09-12T11:42:39.031Z,718.00
2018-09-12T11:43:39.853Z,720.00
2018-09-12T11:44:40.285Z,717.00
2018-09-12T11:45:40.692Z,718.00
2018-09-12T11:46:41.107Z,720.00
2018-09-12T11:47:41.438Z,725.00
2018-09-12T11:48:41.486Z,725.00
2018-09-12T11:49:41.964Z,722.00
2018-09-12T11:50:42.422Z,722.00
2018-09-12T11:51:42.891Z,720.00
2018-09-12T11:52:43.332Z,718.00
2018-09-12T11:53:43.740Z,718.00
2018-09-12T11:54:44.167Z,718.00
2018-09-12T11:55:44.652Z,717.00
2018-09-12T11:56:45.312Z,716.00
2018-09-12T11:57:45.855Z,716.00
2018-09-12T11:58:45.338Z,716.00
2018-09-12T11:59:46.847Z,717.00
2018-09-12T12:00:47.530Z,717.00
2018-09-12T12:01:47.544Z,716.00
2018-09-12T12:02:47.882Z,717.00
2018-09-12T12:02:56.241Z,717.00
2018-09-12T12:03:57.859Z,716.00
2018-09-12T12:04:58.625Z,716.00
2018-09-12T12:05:59.200Z,716.00
2018-09-12T12:06:58.609Z,715.00
2018-09-12T12:08:00.449Z,716.00
2018-09-12T12:09:00.856Z,716.00
2018-09-12T12:10:01.730Z,716.00
2018-09-12T12:11:02.390Z,716.00
2018-09-12T12:12:03.085Z,716.00
2018-09-12T12:13:03.962Z,716.00
2018-09-12T12:14:04.523Z,716.00
2018-09-12T12:15:05.182Z,715.00
2018-09-12T12:16:05.706Z,713.00
2018-09-12T12:17:06.143Z,713.00
2018-09-12T12:18:06.767Z,712.00
2018-09-12T12:19:06.248Z,712.00
2018-09-12T12:20:08.203Z,712.00
2018-09-12T12:21:08.657Z,712.00
2018-09-12T12:22:09.004Z,711.00